sensor_id;sensor_type;location;lat;lon;timestamp;P1;durP1;ratioP1;P2;durP2;ratioP2
61675;SDS011;47574;52.090;5.244;2023-05-14T00:01:33;18.7;;;14.7;;
61675;SDS011;47574;52.090;5.244;2023-05-14T00:03:10;17.0;;;13.3;;
61675;SDS011;47574;52.090;5.244;2023-05-14T00:06:23;20.2;;;13.3;;
61675;SDS011;47574;52.090;5.244;2023-05-14T00:07:59;17.11;;;12.8;;
61675;SDS011;47574;52.090;5.244;2023-05-14T00:09:35;19.3;;;13.4;;
61675;SDS011;47574;52.090;5.244;2023-05-14T00:12:49;15.4;;;12.4;;
61675;SDS011;47574;52.090;5.244;2023-05-14T00:14:26;14.1;;;12.3;;
61675;SDS011;47574;52.090;5.244;2023-05-14T00:16:02;15.3;;;12.4;;
61675;SDS011;47574;52.090;5.244;2023-05-14T00:19:15;17.3;;;13.4;;
61675;SDS011;47574;52.090;5.244;2023-05-14T00:22:27;15.5;;;12.1;;
61675;SDS011;47574;52.090;5.244;2023-05-14T00:24:04;18.2;;;12.2;;
61675;SDS011;47574;52.090;5.244;2023-05-14T00:27:16;18.91;;;12.4;;
61675;SDS011;47574;52.090;5.244;2023-05-14T00:28:52;15.0;;;11.6;;
61675;SDS011;47574;52.090;5.244;2023-05-14T00:30:29;13.7;;;12.0;;
61675;SDS011;47574;52.090;5.244;2023-05-14T00:33:43;18.7;;;11.7;;
61675;SDS011;47574;52.090;5.244;2023-05-14T00:35:19;16.8;;;12.7;;
61675;SDS011;47574;52.090;5.244;2023-05-14T00:36:56;14.8;;;12.0;;
61675;SDS011;47574;52.090;5.244;2023-05-14T00:40:08;17.8;;;12.2;;
61675;SDS011;47574;52.090;5.244;2023-05-14T00:41:45;19.61;;;14.0;;
61675;SDS011;47574;52.090;5.244;2023-05-14T00:43:21;18.8;;;14.6;;
61675;SDS011;47574;52.090;5.244;2023-05-14T00:44:58;21.0;;;18.41;;
61675;SDS011;47574;52.090;5.244;2023-05-14T00:48:11;16.3;;;13.4;;
61675;SDS011;47574;52.090;5.244;2023-05-14T00:49:48;15.2;;;12.1;;
61675;SDS011;47574;52.090;5.244;2023-05-14T00:51:24;14.7;;;11.7;;
61675;SDS011;47574;52.090;5.244;2023-05-14T00:54:37;17.7;;;12.4;;
61675;SDS011;47574;52.090;5.244;2023-05-14T00:56:15;16.0;;;12.4;;
61675;SDS011;47574;52.090;5.244;2023-05-14T00:57:52;16.11;;;11.5;;
61675;SDS011;47574;52.090;5.244;2023-05-14T01:01:08;18.91;;;13.0;;
61675;SDS011;47574;52.090;5.244;2023-05-14T01:02:44;15.5;;;11.6;;
61675;SDS011;47574;52.090;5.244;2023-05-14T01:04:20;14.4;;;11.6;;
61675;SDS011;47574;52.090;5.244;2023-05-14T01:05:57;17.8;;;12.4;;
61675;SDS011;47574;52.090;5.244;2023-05-14T01:09:45;17.3;;;12.6;;
61675;SDS011;47574;52.090;5.244;2023-05-14T01:11:38;14.6;;;12.0;;
61675;SDS011;47574;52.090;5.244;2023-05-14T01:13:24;17.2;;;12.1;;
61675;SDS011;47574;52.090;5.244;2023-05-14T01:15:09;16.5;;;11.9;;
61675;SDS011;47574;52.090;5.244;2023-05-14T01:16:51;17.3;;;12.4;;
61675;SDS011;47574;52.090;5.244;2023-05-14T01:18:32;14.6;;;12.2;;
61675;SDS011;47574;52.090;5.244;2023-05-14T01:21:47;15.8;;;12.6;;
61675;SDS011;47574;52.090;5.244;2023-05-14T01:23:23;15.0;;;12.6;;
61675;SDS011;47574;52.090;5.244;2023-05-14T01:24:59;17.61;;;12.5;;
61675;SDS011;47574;52.090;5.244;2023-05-14T01:28:12;18.11;;;13.8;;
61675;SDS011;47574;52.090;5.244;2023-05-14T01:29:56;15.4;;;12.9;;
61675;SDS011;47574;52.090;5.244;2023-05-14T01:31:38;15.5;;;12.5;;
61675;SDS011;47574;52.090;5.244;2023-05-14T01:33:18;18.0;;;12.4;;
61675;SDS011;47574;52.090;5.244;2023-05-14T01:36:35;16.9;;;12.6;;
61675;SDS011;47574;52.090;5.244;2023-05-14T01:38:14;15.8;;;13.0;;
61675;SDS011;47574;52.090;5.244;2023-05-14T01:39:54;17.2;;;13.4;;
61675;SDS011;47574;52.090;5.244;2023-05-14T01:41:32;15.0;;;13.2;;
61675;SDS011;47574;52.090;5.244;2023-05-14T01:44:45;18.41;;;14.0;;
61675;SDS011;47574;52.090;5.244;2023-05-14T01:46:21;17.7;;;13.1;;
61675;SDS011;47574;52.090;5.244;2023-05-14T01:47:57;18.41;;;13.7;;
61675;SDS011;47574;52.090;5.244;2023-05-14T01:51:10;17.8;;;13.9;;
61675;SDS011;47574;52.090;5.244;2023-05-14T01:52:47;19.5;;;14.0;;
61675;SDS011;47574;52.090;5.244;2023-05-14T01:54:23;21.3;;;14.1;;
61675;SDS011;47574;52.090;5.244;2023-05-14T01:57:35;20.0;;;14.1;;
61675;SDS011;47574;52.090;5.244;2023-05-14T01:59:11;21.4;;;14.3;;
61675;SDS011;47574;52.090;5.244;2023-05-14T02:00:47;18.61;;;13.8;;
61675;SDS011;47574;52.090;5.244;2023-05-14T02:02:25;16.61;;;13.1;;
61675;SDS011;47574;52.090;5.244;2023-05-14T02:05:37;17.0;;;14.3;;
61675;SDS011;47574;52.090;5.244;2023-05-14T02:07:13;17.7;;;14.3;;
61675;SDS011;47574;52.090;5.244;2023-05-14T02:08:49;16.2;;;13.9;;
61675;SDS011;47574;52.090;5.244;2023-05-14T02:12:01;16.8;;;13.9;;
61675;SDS011;47574;52.090;5.244;2023-05-14T02:13:39;18.3;;;13.5;;
61675;SDS011;47574;52.090;5.244;2023-05-14T02:15:15;19.8;;;14.5;;
61675;SDS011;47574;52.090;5.244;2023-05-14T02:18:27;19.61;;;14.1;;
61675;SDS011;47574;52.090;5.244;2023-05-14T02:20:04;19.11;;;14.1;;
61675;SDS011;47574;52.090;5.244;2023-05-14T02:21:41;17.5;;;15.0;;
61675;SDS011;47574;52.090;5.244;2023-05-14T02:23:18;19.61;;;14.5;;
61675;SDS011;47574;52.090;5.244;2023-05-14T02:26:30;18.11;;;14.9;;
61675;SDS011;47574;52.090;5.244;2023-05-14T02:28:06;19.8;;;15.3;;
61675;SDS011;47574;52.090;5.244;2023-05-14T02:29:42;16.11;;;14.4;;
61675;SDS011;47574;52.090;5.244;2023-05-14T02:32:56;20.3;;;14.9;;
61675;SDS011;47574;52.090;5.244;2023-05-14T02:34:32;17.8;;;15.2;;
61675;SDS011;47574;52.090;5.244;2023-05-14T02:36:09;21.0;;;14.8;;
61675;SDS011;47574;52.090;5.244;2023-05-14T02:39:22;18.91;;;16.0;;
61675;SDS011;47574;52.090;5.244;2023-05-14T02:40:58;17.91;;;14.7;;
61675;SDS011;47574;52.090;5.244;2023-05-14T02:44:10;19.2;;;14.5;;
61675;SDS011;47574;52.090;5.244;2023-05-14T02:47:23;18.91;;;15.1;;
61675;SDS011;47574;52.090;5.244;2023-05-14T02:48:59;18.0;;;14.7;;
61675;SDS011;47574;52.090;5.244;2023-05-14T02:50:36;18.11;;;15.5;;
61675;SDS011;47574;52.090;5.244;2023-05-14T02:53:48;19.8;;;15.3;;
61675;SDS011;47574;52.090;5.244;2023-05-14T02:55:24;23.3;;;15.7;;
61675;SDS011;47574;52.090;5.244;2023-05-14T02:57:01;17.91;;;14.7;;
61675;SDS011;47574;52.090;5.244;2023-05-14T03:00:13;21.4;;;16.2;;
61675;SDS011;47574;52.090;5.244;2023-05-14T03:01:50;21.2;;;15.4;;
61675;SDS011;47574;52.090;5.244;2023-05-14T03:03:27;21.0;;;15.6;;
61675;SDS011;47574;52.090;5.244;2023-05-14T03:05:04;19.91;;;14.8;;
61675;SDS011;47574;52.090;5.244;2023-05-14T03:08:17;17.91;;;14.9;;
61675;SDS011;47574;52.090;5.244;2023-05-14T03:09:53;17.91;;;15.1;;
61675;SDS011;47574;52.090;5.244;2023-05-14T03:11:29;20.11;;;14.8;;
61675;SDS011;47574;52.090;5.244;2023-05-14T03:14:41;19.5;;;15.2;;
61675;SDS011;47574;52.090;5.244;2023-05-14T03:16:17;18.11;;;15.5;;
61675;SDS011;47574;52.090;5.244;2023-05-14T03:17:54;17.61;;;14.4;;
61675;SDS011;47574;52.090;5.244;2023-05-14T03:21:07;21.9;;;14.7;;
61675;SDS011;47574;52.090;5.244;2023-05-14T03:22:44;21.0;;;15.4;;
61675;SDS011;47574;52.090;5.244;2023-05-14T03:24:21;20.7;;;14.9;;
61675;SDS011;47574;52.090;5.244;2023-05-14T03:27:34;17.3;;;15.1;;
61675;SDS011;47574;52.090;5.244;2023-05-14T03:29:11;19.11;;;15.9;;
61675;SDS011;47574;52.090;5.244;2023-05-14T03:30:47;16.4;;;14.7;;
61675;SDS011;47574;52.090;5.244;2023-05-14T03:32:23;17.91;;;13.9;;
61675;SDS011;47574;52.090;5.244;2023-05-14T03:35:35;17.61;;;14.9;;
61675;SDS011;47574;52.090;5.244;2023-05-14T03:37:11;18.7;;;15.0;;
61675;SDS011;47574;52.090;5.244;2023-05-14T03:38:47;16.3;;;14.6;;
61675;SDS011;47574;52.090;5.244;2023-05-14T03:42:00;19.0;;;16.0;;
61675;SDS011;47574;52.090;5.244;2023-05-14T03:43:36;18.5;;;15.4;;
61675;SDS011;47574;52.090;5.244;2023-05-14T03:45:12;20.41;;;15.6;;
61675;SDS011;47574;52.090;5.244;2023-05-14T03:48:24;19.0;;;15.3;;
61675;SDS011;47574;52.090;5.244;2023-05-14T03:50:00;17.7;;;15.6;;
61675;SDS011;47574;52.090;5.244;2023-05-14T03:51:38;18.0;;;15.9;;
61675;SDS011;47574;52.090;5.244;2023-05-14T03:53:14;20.2;;;15.4;;
61675;SDS011;47574;52.090;5.244;2023-05-14T03:56:27;20.3;;;15.7;;
61675;SDS011;47574;52.090;5.244;2023-05-14T03:58:03;21.3;;;14.9;;
61675;SDS011;47574;52.090;5.244;2023-05-14T03:59:39;20.9;;;15.9;;
61675;SDS011;47574;52.090;5.244;2023-05-14T04:02:52;23.1;;;15.1;;
61675;SDS011;47574;52.090;5.244;2023-05-14T04:04:28;19.41;;;15.6;;
61675;SDS011;47574;52.090;5.244;2023-05-14T04:06:04;19.91;;;15.5;;
61675;SDS011;47574;52.090;5.244;2023-05-14T04:09:16;17.91;;;15.1;;
61675;SDS011;47574;52.090;5.244;2023-05-14T04:10:52;16.9;;;14.7;;
61675;SDS011;47574;52.090;5.244;2023-05-14T04:12:28;19.41;;;15.0;;
61675;SDS011;47574;52.090;5.244;2023-05-14T04:15:41;20.11;;;15.7;;
61675;SDS011;47574;52.090;5.244;2023-05-14T04:17:17;24.2;;;16.61;;
61675;SDS011;47574;52.090;5.244;2023-05-14T04:18:54;21.9;;;16.4;;
61675;SDS011;47574;52.090;5.244;2023-05-14T04:20:30;17.7;;;15.9;;
61675;SDS011;47574;52.090;5.244;2023-05-14T04:23:42;21.7;;;16.4;;
61675;SDS011;47574;52.090;5.244;2023-05-14T04:25:19;20.9;;;16.3;;
61675;SDS011;47574;52.090;5.244;2023-05-14T04:26:55;19.3;;;16.11;;
61675;SDS011;47574;52.090;5.244;2023-05-14T04:30:08;19.11;;;16.0;;
61675;SDS011;47574;52.090;5.244;2023-05-14T04:31:44;22.6;;;16.7;;
61675;SDS011;47574;52.090;5.244;2023-05-14T04:33:20;20.8;;;17.0;;
61675;SDS011;47574;52.090;5.244;2023-05-14T04:36:33;20.2;;;17.2;;
61675;SDS011;47574;52.090;5.244;2023-05-14T04:38:09;23.1;;;17.91;;
61675;SDS011;47574;52.090;5.244;2023-05-14T04:39:45;21.1;;;17.3;;
61675;SDS011;47574;52.090;5.244;2023-05-14T04:41:21;19.61;;;17.5;;
61675;SDS011;47574;52.090;5.244;2023-05-14T04:44:33;21.2;;;16.7;;
61675;SDS011;47574;52.090;5.244;2023-05-14T04:46:11;21.2;;;16.8;;
61675;SDS011;47574;52.090;5.244;2023-05-14T04:47:47;19.7;;;17.11;;
61675;SDS011;47574;52.090;5.244;2023-05-14T04:50:59;19.3;;;17.2;;
61675;SDS011;47574;52.090;5.244;2023-05-14T04:52:35;18.8;;;16.0;;
61675;SDS011;47574;52.090;5.244;2023-05-14T04:54:13;21.9;;;17.5;;
61675;SDS011;47574;52.090;5.244;2023-05-14T04:57:25;20.7;;;16.7;;
61675;SDS011;47574;52.090;5.244;2023-05-14T04:59:02;22.5;;;17.2;;
61675;SDS011;47574;52.090;5.244;2023-05-14T05:00:38;21.1;;;16.2;;
61675;SDS011;47574;52.090;5.244;2023-05-14T05:02:14;20.2;;;16.4;;
61675;SDS011;47574;52.090;5.244;2023-05-14T05:05:27;20.3;;;16.61;;
61675;SDS011;47574;52.090;5.244;2023-05-14T05:07:03;21.8;;;16.3;;
61675;SDS011;47574;52.090;5.244;2023-05-14T05:08:40;19.2;;;15.9;;
61675;SDS011;47574;52.090;5.244;2023-05-14T05:11:53;19.7;;;15.0;;
61675;SDS011;47574;52.090;5.244;2023-05-14T05:13:29;20.3;;;15.5;;
61675;SDS011;47574;52.090;5.244;2023-05-14T05:15:06;22.5;;;15.5;;
61675;SDS011;47574;52.090;5.244;2023-05-14T05:18:20;21.5;;;15.9;;
61675;SDS011;47574;52.090;5.244;2023-05-14T05:19:56;18.61;;;14.5;;
61675;SDS011;47574;52.090;5.244;2023-05-14T05:21:32;17.3;;;14.8;;
61675;SDS011;47574;52.090;5.244;2023-05-14T05:23:09;23.0;;;15.1;;
61675;SDS011;47574;52.090;5.244;2023-05-14T05:26:22;20.5;;;16.11;;
61675;SDS011;47574;52.090;5.244;2023-05-14T05:27:59;18.5;;;14.9;;
61675;SDS011;47574;52.090;5.244;2023-05-14T05:29:35;18.11;;;14.0;;
61675;SDS011;47574;52.090;5.244;2023-05-14T05:32:47;20.0;;;14.3;;
61675;SDS011;47574;52.090;5.244;2023-05-14T05:34:23;19.5;;;14.9;;
61675;SDS011;47574;52.090;5.244;2023-05-14T05:36:00;18.61;;;14.3;;
61675;SDS011;47574;52.090;5.244;2023-05-14T05:39:12;19.7;;;14.7;;
61675;SDS011;47574;52.090;5.244;2023-05-14T05:40:48;19.11;;;14.1;;
61675;SDS011;47574;52.090;5.244;2023-05-14T05:42:24;19.5;;;14.5;;
61675;SDS011;47574;52.090;5.244;2023-05-14T05:45:36;15.8;;;14.1;;
61675;SDS011;47574;52.090;5.244;2023-05-14T05:47:13;18.2;;;14.3;;
61675;SDS011;47574;52.090;5.244;2023-05-14T05:48:49;19.2;;;14.4;;
61675;SDS011;47574;52.090;5.244;2023-05-14T05:50:25;18.2;;;14.0;;
61675;SDS011;47574;52.090;5.244;2023-05-14T05:53:38;19.5;;;13.9;;
61675;SDS011;47574;52.090;5.244;2023-05-14T05:55:14;19.0;;;13.8;;
61675;SDS011;47574;52.090;5.244;2023-05-14T05:56:51;17.3;;;13.6;;
61675;SDS011;47574;52.090;5.244;2023-05-14T06:00:04;17.2;;;14.1;;
61675;SDS011;47574;52.090;5.244;2023-05-14T06:01:42;17.8;;;13.6;;
61675;SDS011;47574;52.090;5.244;2023-05-14T06:03:18;16.61;;;13.2;;
61675;SDS011;47574;52.090;5.244;2023-05-14T06:06:30;17.7;;;13.7;;
61675;SDS011;47574;52.090;5.244;2023-05-14T06:08:07;17.2;;;13.6;;
61675;SDS011;47574;52.090;5.244;2023-05-14T06:09:43;16.61;;;13.7;;
61675;SDS011;47574;52.090;5.244;2023-05-14T06:11:19;17.2;;;14.1;;
61675;SDS011;47574;52.090;5.244;2023-05-14T06:14:31;19.61;;;13.9;;
61675;SDS011;47574;52.090;5.244;2023-05-14T06:16:08;17.5;;;12.9;;
61675;SDS011;47574;52.090;5.244;2023-05-14T06:17:44;17.41;;;13.5;;
61675;SDS011;47574;52.090;5.244;2023-05-14T06:20:58;16.8;;;12.5;;
61675;SDS011;47574;52.090;5.244;2023-05-14T06:22:34;15.8;;;12.7;;
61675;SDS011;47574;52.090;5.244;2023-05-14T06:24:10;15.1;;;12.0;;
61675;SDS011;47574;52.090;5.244;2023-05-14T06:27:24;15.9;;;11.5;;
61675;SDS011;47574;52.090;5.244;2023-05-14T06:29:01;13.5;;;11.7;;
61675;SDS011;47574;52.090;5.244;2023-05-14T06:30:37;14.8;;;11.5;;
61675;SDS011;47574;52.090;5.244;2023-05-14T06:32:13;14.8;;;11.3;;
61675;SDS011;47574;52.090;5.244;2023-05-14T06:35:25;15.4;;;10.9;;
61675;SDS011;47574;52.090;5.244;2023-05-14T06:37:01;13.5;;;10.5;;
61675;SDS011;47574;52.090;5.244;2023-05-14T06:38:37;12.6;;;10.6;;
61675;SDS011;47574;52.090;5.244;2023-05-14T06:41:50;12.9;;;10.0;;
61675;SDS011;47574;52.090;5.244;2023-05-14T06:43:26;14.0;;;9.81;;
61675;SDS011;47574;52.090;5.244;2023-05-14T06:45:02;15.8;;;10.8;;
61675;SDS011;47574;52.090;5.244;2023-05-14T06:48:15;13.8;;;10.5;;
61675;SDS011;47574;52.090;5.244;2023-05-14T06:49:53;14.7;;;10.0;;
61675;SDS011;47574;52.090;5.244;2023-05-14T06:51:29;15.6;;;10.8;;
61675;SDS011;47574;52.090;5.244;2023-05-14T06:54:41;14.5;;;10.0;;
61675;SDS011;47574;52.090;5.244;2023-05-14T06:56:17;12.5;;;10.6;;
61675;SDS011;47574;52.090;5.244;2023-05-14T06:57:53;12.3;;;10.5;;
61675;SDS011;47574;52.090;5.244;2023-05-14T06:59:30;12.3;;;10.5;;
61675;SDS011;47574;52.090;5.244;2023-05-14T07:02:42;13.1;;;10.7;;
61675;SDS011;47574;52.090;5.244;2023-05-14T07:04:18;13.1;;;10.7;;
61675;SDS011;47574;52.090;5.244;2023-05-14T07:05:55;15.0;;;11.2;;
61675;SDS011;47574;52.090;5.244;2023-05-14T07:09:08;15.9;;;10.7;;
61675;SDS011;47574;52.090;5.244;2023-05-14T07:10:44;13.8;;;10.8;;
61675;SDS011;47574;52.090;5.244;2023-05-14T07:12:21;17.3;;;11.5;;
61675;SDS011;47574;52.090;5.244;2023-05-14T07:15:33;14.1;;;11.1;;
61675;SDS011;47574;52.090;5.244;2023-05-14T07:17:09;14.6;;;11.0;;
61675;SDS011;47574;52.090;5.244;2023-05-14T07:18:46;12.9;;;11.1;;
61675;SDS011;47574;52.090;5.244;2023-05-14T07:20:22;17.61;;;11.6;;
61675;SDS011;47574;52.090;5.244;2023-05-14T07:23:34;15.7;;;11.7;;
61675;SDS011;47574;52.090;5.244;2023-05-14T07:25:10;14.0;;;10.7;;
61675;SDS011;47574;52.090;5.244;2023-05-14T07:26:47;16.2;;;11.0;;
61675;SDS011;47574;52.090;5.244;2023-05-14T07:30:00;13.6;;;11.4;;
61675;SDS011;47574;52.090;5.244;2023-05-14T07:31:36;11.5;;;10.3;;
61675;SDS011;47574;52.090;5.244;2023-05-14T07:33:12;15.1;;;11.3;;
61675;SDS011;47574;52.090;5.244;2023-05-14T07:36:24;14.8;;;10.7;;
61675;SDS011;47574;52.090;5.244;2023-05-14T07:38:00;14.2;;;11.6;;
61675;SDS011;47574;52.090;5.244;2023-05-14T07:39:37;12.3;;;10.3;;
61675;SDS011;47574;52.090;5.244;2023-05-14T07:41:14;12.9;;;11.2;;
61675;SDS011;47574;52.090;5.244;2023-05-14T07:44:27;14.5;;;10.9;;
61675;SDS011;47574;52.090;5.244;2023-05-14T07:46:04;13.1;;;10.9;;
61675;SDS011;47574;52.090;5.244;2023-05-14T07:47:40;13.0;;;10.3;;
61675;SDS011;47574;52.090;5.244;2023-05-14T07:50:53;15.5;;;10.21;;
61675;SDS011;47574;52.090;5.244;2023-05-14T07:52:30;15.3;;;10.21;;
61675;SDS011;47574;52.090;5.244;2023-05-14T07:54:06;12.0;;;9.71;;
61675;SDS011;47574;52.090;5.244;2023-05-14T07:57:19;11.1;;;8.5;;
61675;SDS011;47574;52.090;5.244;2023-05-14T07:58:56;10.4;;;8.0;;
61675;SDS011;47574;52.090;5.244;2023-05-14T08:00:32;11.2;;;8.1;;
61675;SDS011;47574;52.090;5.244;2023-05-14T08:02:08;12.7;;;7.9;;
61675;SDS011;47574;52.090;5.244;2023-05-14T08:05:21;13.6;;;8.0;;
61675;SDS011;47574;52.090;5.244;2023-05-14T08:06:57;9.4;;;7.6;;
61675;SDS011;47574;52.090;5.244;2023-05-14T08:08:33;11.5;;;7.8;;
61675;SDS011;47574;52.090;5.244;2023-05-14T08:11:45;12.9;;;8.1;;
61675;SDS011;47574;52.090;5.244;2023-05-14T08:13:22;12.7;;;7.6;;
61675;SDS011;47574;52.090;5.244;2023-05-14T08:14:58;11.8;;;8.0;;
61675;SDS011;47574;52.090;5.244;2023-05-14T08:18:10;11.0;;;7.1;;
61675;SDS011;47574;52.090;5.244;2023-05-14T08:19:46;10.1;;;7.7;;
61675;SDS011;47574;52.090;5.244;2023-05-14T08:21:22;10.5;;;7.6;;
61675;SDS011;47574;52.090;5.244;2023-05-14T08:24:35;10.5;;;7.4;;
61675;SDS011;47574;52.090;5.244;2023-05-14T08:26:11;11.5;;;7.2;;
61675;SDS011;47574;52.090;5.244;2023-05-14T08:27:47;8.6;;;6.8;;
61675;SDS011;47574;52.090;5.244;2023-05-14T08:29:23;8.9;;;6.5;;
61675;SDS011;47574;52.090;5.244;2023-05-14T08:32:35;9.1;;;6.8;;
61675;SDS011;47574;52.090;5.244;2023-05-14T08:34:12;15.1;;;6.4;;
61675;SDS011;47574;52.090;5.244;2023-05-14T08:35:49;9.81;;;6.4;;
61675;SDS011;47574;52.090;5.244;2023-05-14T08:39:03;11.5;;;6.1;;
61675;SDS011;47574;52.090;5.244;2023-05-14T08:40:39;9.81;;;5.3;;
61675;SDS011;47574;52.090;5.244;2023-05-14T08:42:16;10.6;;;6.4;;
61675;SDS011;47574;52.090;5.244;2023-05-14T08:45:45;10.6;;;6.0;;
61675;SDS011;47574;52.090;5.244;2023-05-14T08:47:24;9.5;;;5.9;;
61675;SDS011;47574;52.090;5.244;2023-05-14T08:49:03;10.9;;;5.2;;
61675;SDS011;47574;52.090;5.244;2023-05-14T08:50:54;8.5;;;4.7;;
61675;SDS011;47574;52.090;5.244;2023-05-14T08:52:32;9.6;;;5.0;;
61675;SDS011;47574;52.090;5.244;2023-05-14T08:55:47;9.6;;;5.0;;
61675;SDS011;47574;52.090;5.244;2023-05-14T08:57:26;8.0;;;4.7;;
61675;SDS011;47574;52.090;5.244;2023-05-14T08:59:05;9.31;;;5.3;;
61675;SDS011;47574;52.090;5.244;2023-05-14T09:02:19;12.8;;;5.4;;
61675;SDS011;47574;52.090;5.244;2023-05-14T09:03:59;13.7;;;4.8;;
61675;SDS011;47574;52.090;5.244;2023-05-14T09:05:36;8.1;;;4.5;;
61675;SDS011;47574;52.090;5.244;2023-05-14T09:07:13;9.9;;;4.5;;
61675;SDS011;47574;52.090;5.244;2023-05-14T09:10:27;10.1;;;4.61;;
61675;SDS011;47574;52.090;5.244;2023-05-14T09:12:04;9.9;;;5.0;;
61675;SDS011;47574;52.090;5.244;2023-05-14T09:13:41;9.71;;;4.8;;
61675;SDS011;47574;52.090;5.244;2023-05-14T09:16:54;10.0;;;4.91;;
61675;SDS011;47574;52.090;5.244;2023-05-14T09:18:30;11.2;;;4.7;;
61675;SDS011;47574;52.090;5.244;2023-05-14T09:20:07;9.4;;;4.61;;
61675;SDS011;47574;52.090;5.244;2023-05-14T09:21:44;8.9;;;4.41;;
61675;SDS011;47574;52.090;5.244;2023-05-14T09:25:01;8.31;;;4.61;;
61675;SDS011;47574;52.090;5.244;2023-05-14T09:26:40;8.0;;;4.5;;
61675;SDS011;47574;52.090;5.244;2023-05-14T09:28:17;8.31;;;4.5;;
61675;SDS011;47574;52.090;5.244;2023-05-14T09:31:30;9.4;;;4.8;;
61675;SDS011;47574;52.090;5.244;2023-05-14T09:33:08;7.4;;;4.8;;
61675;SDS011;47574;52.090;5.244;2023-05-14T09:34:45;9.81;;;4.7;;
61675;SDS011;47574;52.090;5.244;2023-05-14T09:36:21;9.81;;;4.7;;
61675;SDS011;47574;52.090;5.244;2023-05-14T09:39:35;8.9;;;4.91;;
61675;SDS011;47574;52.090;5.244;2023-05-14T09:41:12;7.5;;;4.2;;
61675;SDS011;47574;52.090;5.244;2023-05-14T09:42:49;8.9;;;4.61;;
61675;SDS011;47574;52.090;5.244;2023-05-14T09:46:03;12.7;;;5.11;;
61675;SDS011;47574;52.090;5.244;2023-05-14T09:47:40;9.21;;;4.41;;
61675;SDS011;47574;52.090;5.244;2023-05-14T09:49:17;9.5;;;4.61;;
61675;SDS011;47574;52.090;5.244;2023-05-14T09:52:31;10.3;;;4.7;;
61675;SDS011;47574;52.090;5.244;2023-05-14T09:54:08;7.0;;;4.41;;
61675;SDS011;47574;52.090;5.244;2023-05-14T09:55:45;11.0;;;5.0;;
61675;SDS011;47574;52.090;5.244;2023-05-14T09:57:22;11.1;;;4.3;;
61675;SDS011;47574;52.090;5.244;2023-05-14T10:00:36;9.0;;;4.41;;
61675;SDS011;47574;52.090;5.244;2023-05-14T10:02:15;7.5;;;4.2;;
61675;SDS011;47574;52.090;5.244;2023-05-14T10:03:58;10.21;;;4.91;;
61675;SDS011;47574;52.090;5.244;2023-05-14T10:05:38;7.4;;;3.9;;
61675;SDS011;47574;52.090;5.244;2023-05-14T10:08:58;10.3;;;4.2;;
61675;SDS011;47574;52.090;5.244;2023-05-14T10:10:38;8.1;;;4.1;;
61675;SDS011;47574;52.090;5.244;2023-05-14T10:12:15;9.1;;;4.3;;
61675;SDS011;47574;52.090;5.244;2023-05-14T10:13:58;10.7;;;4.5;;
61675;SDS011;47574;52.090;5.244;2023-05-14T10:17:27;7.9;;;3.8;;
61675;SDS011;47574;52.090;5.244;2023-05-14T10:19:07;8.71;;;4.0;;
61675;SDS011;47574;52.090;5.244;2023-05-14T10:20:47;7.5;;;4.1;;
61675;SDS011;47574;52.090;5.244;2023-05-14T10:22:40;9.0;;;4.2;;
61675;SDS011;47574;52.090;5.244;2023-05-14T10:25:55;7.2;;;3.7;;
61675;SDS011;47574;52.090;5.244;2023-05-14T10:27:32;11.9;;;4.41;;
61675;SDS011;47574;52.090;5.244;2023-05-14T10:29:09;9.0;;;4.2;;
61675;SDS011;47574;52.090;5.244;2023-05-14T10:30:46;7.4;;;4.1;;
61675;SDS011;47574;52.090;5.244;2023-05-14T10:34:00;5.9;;;3.5;;
61675;SDS011;47574;52.090;5.244;2023-05-14T10:36:08;7.4;;;4.0;;
61675;SDS011;47574;52.090;5.244;2023-05-14T10:37:45;7.4;;;4.0;;
61675;SDS011;47574;52.090;5.244;2023-05-14T10:39:22;8.1;;;4.3;;
61675;SDS011;47574;52.090;5.244;2023-05-14T10:41:15;12.7;;;4.5;;
61675;SDS011;47574;52.090;5.244;2023-05-14T10:44:30;9.5;;;4.2;;
61675;SDS011;47574;52.090;5.244;2023-05-14T10:46:10;9.6;;;4.1;;
61675;SDS011;47574;52.090;5.244;2023-05-14T10:47:49;10.6;;;4.1;;
61675;SDS011;47574;52.090;5.244;2023-05-14T10:51:02;10.1;;;4.2;;
61675;SDS011;47574;52.090;5.244;2023-05-14T10:52:39;9.21;;;3.9;;
61675;SDS011;47574;52.090;5.244;2023-05-14T10:54:16;10.1;;;4.3;;
61675;SDS011;47574;52.090;5.244;2023-05-14T10:55:53;10.1;;;4.3;;
61675;SDS011;47574;52.090;5.244;2023-05-14T10:59:07;9.21;;;4.2;;
61675;SDS011;47574;52.090;5.244;2023-05-14T11:00:46;9.4;;;4.41;;
61675;SDS011;47574;52.090;5.244;2023-05-14T11:02:23;11.8;;;4.0;;
61675;SDS011;47574;52.090;5.244;2023-05-14T11:05:38;6.9;;;3.8;;
61675;SDS011;47574;52.090;5.244;2023-05-14T11:07:15;8.1;;;3.7;;
61675;SDS011;47574;52.090;5.244;2023-05-14T11:08:54;7.9;;;4.2;;
61675;SDS011;47574;52.090;5.244;2023-05-14T11:10:31;9.31;;;4.2;;
61675;SDS011;47574;52.090;5.244;2023-05-14T11:13:44;7.7;;;3.8;;
61675;SDS011;47574;52.090;5.244;2023-05-14T11:15:22;6.9;;;3.7;;
61675;SDS011;47574;52.090;5.244;2023-05-14T11:17:00;9.31;;;4.0;;
61675;SDS011;47574;52.090;5.244;2023-05-14T11:20:14;9.21;;;4.2;;
61675;SDS011;47574;52.090;5.244;2023-05-14T11:21:51;8.1;;;4.1;;
61675;SDS011;47574;52.090;5.244;2023-05-14T11:23:27;8.2;;;4.1;;
61675;SDS011;47574;52.090;5.244;2023-05-14T11:25:04;8.9;;;4.1;;
61675;SDS011;47574;52.090;5.244;2023-05-14T11:28:19;7.2;;;3.8;;
61675;SDS011;47574;52.090;5.244;2023-05-14T11:29:56;8.9;;;3.9;;
61675;SDS011;47574;52.090;5.244;2023-05-14T11:31:33;8.9;;;3.6;;
61675;SDS011;47574;52.090;5.244;2023-05-14T11:34:47;6.6;;;3.5;;
61675;SDS011;47574;52.090;5.244;2023-05-14T11:36:23;8.5;;;3.8;;
61675;SDS011;47574;52.090;5.244;2023-05-14T11:37:59;8.6;;;3.8;;
61675;SDS011;47574;52.090;5.244;2023-05-14T11:41:13;7.7;;;3.9;;
61675;SDS011;47574;52.090;5.244;2023-05-14T11:42:49;7.9;;;3.5;;
61675;SDS011;47574;52.090;5.244;2023-05-14T11:44:26;7.9;;;3.5;;
61675;SDS011;47574;52.090;5.244;2023-05-14T11:46:02;9.31;;;3.7;;
61675;SDS011;47574;52.090;5.244;2023-05-14T11:49:16;8.71;;;4.41;;
61675;SDS011;47574;52.090;5.244;2023-05-14T11:50:56;8.1;;;3.8;;
61675;SDS011;47574;52.090;5.244;2023-05-14T11:52:36;9.71;;;4.2;;
61675;SDS011;47574;52.090;5.244;2023-05-14T11:55:50;9.21;;;3.9;;
61675;SDS011;47574;52.090;5.244;2023-05-14T11:57:29;11.6;;;4.3;;
61675;SDS011;47574;52.090;5.244;2023-05-14T11:59:05;10.21;;;4.61;;
61675;SDS011;47574;52.090;5.244;2023-05-14T12:00:43;7.3;;;3.8;;
61675;SDS011;47574;52.090;5.244;2023-05-14T12:03:58;8.5;;;3.7;;
61675;SDS011;47574;52.090;5.244;2023-05-14T12:05:36;8.1;;;3.9;;
61675;SDS011;47574;52.090;5.244;2023-05-14T12:07:14;7.5;;;3.7;;
61675;SDS011;47574;52.090;5.244;2023-05-14T12:10:40;9.6;;;4.1;;
61675;SDS011;47574;52.090;5.244;2023-05-14T12:12:17;7.8;;;4.0;;
61675;SDS011;47574;52.090;5.244;2023-05-14T12:13:57;10.4;;;4.0;;
61675;SDS011;47574;52.090;5.244;2023-05-14T12:15:34;7.8;;;4.0;;
61675;SDS011;47574;52.090;5.244;2023-05-14T12:18:50;6.8;;;3.5;;
61675;SDS011;47574;52.090;5.244;2023-05-14T12:20:26;9.31;;;4.1;;
61675;SDS011;47574;52.090;5.244;2023-05-14T12:22:04;8.5;;;3.6;;
61675;SDS011;47574;52.090;5.244;2023-05-14T12:23:43;8.71;;;3.4;;
61675;SDS011;47574;52.090;5.244;2023-05-14T12:26:59;7.8;;;3.7;;
61675;SDS011;47574;52.090;5.244;2023-05-14T12:28:38;8.6;;;3.5;;
61675;SDS011;47574;52.090;5.244;2023-05-14T12:30:14;7.3;;;3.8;;
61675;SDS011;47574;52.090;5.244;2023-05-14T12:33:29;10.8;;;4.0;;
61675;SDS011;47574;52.090;5.244;2023-05-14T12:35:06;7.9;;;3.8;;
61675;SDS011;47574;52.090;5.244;2023-05-14T12:36:43;9.1;;;4.1;;
61675;SDS011;47574;52.090;5.244;2023-05-14T12:38:19;8.31;;;3.9;;
61675;SDS011;47574;52.090;5.244;2023-05-14T12:41:32;6.2;;;3.5;;
61675;SDS011;47574;52.090;5.244;2023-05-14T12:43:09;8.0;;;4.0;;
61675;SDS011;47574;52.090;5.244;2023-05-14T12:44:45;10.3;;;3.9;;